Time;durP1;ratioP1;P1;durP2;ratioP2;P2;SDS_P1;SDS_P2;PMS_P1;PMS_P2;Temp;Humidity;BMP_temperature;BMP_pressure;BME280_temperature;BME280_humidity;BME280_pressure;Samples;Min_cycle;Max_cycle;Signal;HPM_P1;HPM_P2
2023/01/19 00:01:25;;;;;;;20.58;11.73;;;3.10;99.90;;;;;;5065107;28;20036;-64
2023/01/19 00:03:50;;;;;;;16.45;11.10;;;3.00;99.90;;;;;;5074937;28;20040;-63
2023/01/19 00:06:17;;;;;;;19.10;12.82;;;3.00;99.90;;;;;;5059714;28;20099;-63
2023/01/19 00:08:44;;;;;;;19.27;13.02;;;3.00;99.90;;;;;;5063310;28;20092;-63
2023/01/19 00:11:11;;;;;;;16.52;10.00;;;3.00;99.90;;;;;;5066757;28;20040;-63
2023/01/19 00:13:37;;;;;;;16.67;9.95;;;3.00;99.90;;;;;;5059717;28;20072;-63
2023/01/19 00:16:04;;;;;;;15.80;10.23;;;3.00;99.90;;;;;;5064918;28;20122;-64
2023/01/19 00:18:29;;;;;;;17.42;10.23;;;3.00;99.90;;;;;;5069564;28;20045;-64
2023/01/19 00:20:55;;;;;;;14.05;9.45;;;3.00;99.90;;;;;;5069808;28;20127;-63
2023/01/19 00:23:21;;;;;;;13.95;9.32;;;2.90;99.90;;;;;;5073256;28;20387;-64
2023/01/19 00:25:47;;;;;;;13.25;8.85;;;2.90;99.90;;;;;;5060042;28;20479;-63
2023/01/19 00:28:15;;;;;;;15.02;10.23;;;2.90;99.90;;;;;;5052447;28;20057;-63
2023/01/19 00:30:41;;;;;;;13.45;9.52;;;2.90;99.90;;;;;;5065211;28;20066;-63
2023/01/19 00:33:08;;;;;;;13.52;8.85;;;2.90;99.90;;;;;;5065771;28;20032;-63
2023/01/19 00:35:35;;;;;;;10.77;7.78;;;2.90;99.90;;;;;;5074387;28;20051;-63
2023/01/19 00:38:01;;;;;;;8.38;6.28;;;2.80;99.90;;;;;;5069800;28;20048;-63
2023/01/19 00:40:27;;;;;;;10.25;7.15;;;2.80;99.90;;;;;;5068769;28;20117;-63
2023/01/19 00:42:53;;;;;;;11.15;7.45;;;2.80;99.90;;;;;;5065553;28;20089;-64
2023/01/19 00:45:21;;;;;;;10.20;6.80;;;2.70;99.90;;;;;;5066041;28;20048;-64
2023/01/19 00:47:49;;;;;;;14.55;10.90;;;2.70;99.90;;;;;;5059448;28;20049;-63
2023/01/19 00:50:16;;;;;;;13.70;8.93;;;2.60;99.90;;;;;;5065389;28;20460;-63
2023/01/19 00:52:43;;;;;;;12.63;9.02;;;2.60;99.90;;;;;;5073911;28;20048;-63
2023/01/19 00:55:14;;;;;;;16.75;12.10;;;2.60;99.90;;;;;;5067553;28;20040;-63
2023/01/19 00:57:40;;;;;;;17.25;12.00;;;2.50;99.90;;;;;;5066489;28;20486;-64
2023/01/19 01:00:10;;;;;;;18.77;13.10;;;2.50;99.90;;;;;;5065283;28;20083;-63
2023/01/19 01:02:36;;;;;;;15.52;9.98;;;2.50;99.90;;;;;;5065923;28;20116;-63
2023/01/19 01:05:05;;;;;;;15.88;11.63;;;2.50;99.90;;;;;;5060317;28;20033;-63
2023/01/19 01:07:33;;;;;;;19.98;13.80;;;2.50;99.90;;;;;;5065394;28;20032;-64
2023/01/19 01:10:00;;;;;;;21.63;15.65;;;2.50;99.90;;;;;;5074087;28;20041;-63
2023/01/19 01:12:25;;;;;;;20.83;13.68;;;2.40;99.90;;;;;;5059873;28;20029;-63
2023/01/19 01:14:51;;;;;;;21.20;14.93;;;2.50;99.90;;;;;;5063049;28;20047;-63
2023/01/19 01:17:16;;;;;;;22.58;15.65;;;2.40;99.90;;;;;;5066480;28;20044;-63
2023/01/19 01:19:42;;;;;;;21.65;14.57;;;2.40;99.90;;;;;;5062123;28;20079;-64
2023/01/19 01:22:08;;;;;;;22.77;14.90;;;2.40;99.90;;;;;;5069218;28;20033;-63
2023/01/19 01:24:34;;;;;;;22.83;15.48;;;2.40;99.90;;;;;;5068931;28;20075;-63
2023/01/19 01:27:00;;;;;;;23.48;14.13;;;2.40;99.90;;;;;;5068091;28;20068;-63
2023/01/19 01:29:26;;;;;;;24.52;17.95;;;2.40;99.90;;;;;;5052318;28;20069;-63
2023/01/19 01:31:52;;;;;;;26.35;16.75;;;2.40;99.90;;;;;;5062269;28;20452;-63
2023/01/19 01:34:17;;;;;;;23.60;14.15;;;2.40;99.90;;;;;;5073100;28;20032;-63
2023/01/19 01:36:43;;;;;;;24.95;16.13;;;2.40;99.90;;;;;;5059605;28;20037;-63
2023/01/19 01:39:09;;;;;;;23.98;16.10;;;2.40;99.90;;;;;;5066163;28;20037;-63
2023/01/19 01:41:35;;;;;;;26.27;16.70;;;2.40;99.90;;;;;;5068538;28;20040;-64
2023/01/19 01:44:05;;;;;;;25.25;16.00;;;2.40;99.90;;;;;;5069738;28;20417;-64
2023/01/19 01:46:31;;;;;;;22.85;14.68;;;2.40;99.90;;;;;;5067036;28;20032;-64
2023/01/19 01:48:56;;;;;;;25.75;18.10;;;2.40;99.90;;;;;;5062944;28;20204;-64
2023/01/19 01:51:37;;;;;;;26.65;17.05;;;2.40;99.90;;;;;;5073071;28;20717;-63
2023/01/19 01:54:02;;;;;;;29.52;18.15;;;2.40;99.90;;;;;;5057075;28;20242;-63
2023/01/19 01:56:41;;;;;;;21.40;15.40;;;2.40;99.90;;;;;;5051567;28;20140;-63
2023/01/19 01:59:27;;;;;;;28.60;15.32;;;2.40;99.90;;;;;;5052618;28;20115;-63
2023/01/19 02:04:46;;;;;;;31.92;21.00;;;2.50;99.90;;;;;;5062710;28;20403;-63
2023/01/19 02:15:29;;;;;;;25.83;15.00;;;2.60;99.90;;;;;;5071469;28;20406;-63
2023/01/19 02:17:57;;;;;;;27.00;16.40;;;2.60;99.90;;;;;;5072057;28;20032;-64
2023/01/19 02:20:29;;;;;;;25.45;15.20;;;2.60;99.90;;;;;;5062480;28;20104;-64
2023/01/19 02:23:00;;;;;;;25.73;16.75;;;2.60;99.90;;;;;;5060837;28;20399;-63
2023/01/19 02:25:26;;;;;;;25.50;15.73;;;2.60;99.90;;;;;;5069134;28;20059;-63
2023/01/19 02:27:52;;;;;;;24.13;15.55;;;2.60;99.90;;;;;;5066427;28;20449;-64
2023/01/19 02:30:18;;;;;;;25.63;15.75;;;2.60;99.90;;;;;;5063374;28;20028;-64
2023/01/19 02:32:43;;;;;;;24.45;15.55;;;2.70;99.90;;;;;;5072186;28;20384;-63
2023/01/19 02:35:10;;;;;;;25.08;15.88;;;2.70;99.90;;;;;;5064366;28;20037;-63
2023/01/19 02:37:39;;;;;;;29.27;18.00;;;2.70;99.90;;;;;;5067113;28;20045;-63
2023/01/19 02:40:11;;;;;;;29.55;17.92;;;2.70;99.90;;;;;;5062469;28;20049;-63
2023/01/19 02:42:44;;;;;;;27.33;17.30;;;2.70;99.90;;;;;;5066248;28;20037;-63
2023/01/19 02:45:13;;;;;;;29.33;18.98;;;2.70;99.90;;;;;;5058737;28;20541;-63
2023/01/19 02:47:48;;;;;;;28.13;18.00;;;2.70;99.90;;;;;;5063500;28;20040;-64
2023/01/19 02:50:40;;;;;;;31.75;17.42;;;2.70;99.90;;;;;;5066875;28;21096;-63
2023/01/19 02:53:18;;;;;;;34.35;20.88;;;2.70;99.90;;;;;;5057063;28;20048;-63
2023/01/19 02:55:52;;;;;;;34.67;21.73;;;2.70;99.90;;;;;;5063238;28;20512;-63
2023/01/19 02:58:48;;;;;;;39.10;25.55;;;2.70;99.90;;;;;;5071984;28;20119;-64
2023/01/19 03:01:57;;;;;;;35.92;22.00;;;2.70;99.90;;;;;;5061643;28;20037;-63
2023/01/19 03:04:48;;;;;;;34.55;21.23;;;2.80;99.90;;;;;;5059811;28;20041;-63
2023/01/19 03:07:23;;;;;;;32.05;19.40;;;2.70;99.90;;;;;;5051640;28;20037;-64
2023/01/19 03:10:01;;;;;;;34.75;24.63;;;2.70;99.90;;;;;;5060642;28;20036;-63
2023/01/19 03:12:46;;;;;;;39.42;23.83;;;2.80;99.90;;;;;;5062798;28;20029;-63
2023/01/19 03:15:21;;;;;;;32.60;20.48;;;2.80;99.90;;;;;;5071779;28;20033;-63
2023/01/19 03:17:50;;;;;;;37.05;24.42;;;2.70;99.90;;;;;;5058272;28;20072;-63
2023/01/19 03:20:21;;;;;;;29.15;18.98;;;2.80;99.90;;;;;;5061455;28;20037;-63
2023/01/19 03:22:50;;;;;;;36.75;24.40;;;2.70;99.90;;;;;;5068573;28;20042;-64
2023/01/19 03:25:18;;;;;;;36.30;21.45;;;2.70;99.90;;;;;;5071706;28;20120;-64
2023/01/19 03:27:46;;;;;;;32.83;19.02;;;2.70;99.90;;;;;;5055792;28;20053;-63
2023/01/19 03:30:24;;;;;;;32.38;19.63;;;2.70;99.90;;;;;;5061350;28;20072;-63
2023/01/19 03:32:59;;;;;;;29.10;17.67;;;2.70;99.90;;;;;;5064971;28;20060;-63
2023/01/19 03:35:29;;;;;;;32.05;17.92;;;2.70;99.90;;;;;;5053976;28;20091;-63
2023/01/19 03:37:57;;;;;;;28.08;17.05;;;2.70;99.90;;;;;;5063501;28;20045;-63
2023/01/19 03:40:26;;;;;;;28.55;16.38;;;2.70;99.90;;;;;;5075774;28;20051;-63
2023/01/19 03:42:52;;;;;;;29.15;19.08;;;2.70;99.90;;;;;;5062533;28;20660;-63
2023/01/19 03:45:18;;;;;;;24.02;15.30;;;2.70;99.90;;;;;;5059968;28;20040;-63
2023/01/19 03:47:43;;;;;;;25.65;15.18;;;2.70;99.90;;;;;;5066745;28;20050;-63
2023/01/19 03:50:18;;;;;;;25.10;15.98;;;2.70;99.90;;;;;;5067592;28;20040;-64
2023/01/19 03:52:43;;;;;;;24.52;15.60;;;2.70;99.90;;;;;;5069377;28;20041;-64
2023/01/19 03:55:09;;;;;;;20.98;13.15;;;2.70;99.90;;;;;;5066904;28;20506;-64
2023/01/19 03:57:35;;;;;;;21.65;13.27;;;2.70;99.90;;;;;;5073988;28;20037;-64
2023/01/19 04:00:01;;;;;;;19.23;12.27;;;2.60;99.90;;;;;;5057241;28;20048;-64
2023/01/19 04:02:27;;;;;;;20.98;12.77;;;2.60;99.90;;;;;;5067041;28;20041;-64
2023/01/19 04:04:52;;;;;;;18.00;11.50;;;2.60;99.90;;;;;;5073107;28;20114;-63
2023/01/19 04:07:18;;;;;;;17.70;12.05;;;2.50;99.90;;;;;;5069615;28;20387;-63
2023/01/19 04:09:43;;;;;;;18.80;11.80;;;2.50;99.90;;;;;;5066019;28;20041;-63
2023/01/19 04:12:09;;;;;;;18.80;11.90;;;2.50;99.90;;;;;;5061269;28;20076;-64
2023/01/19 04:14:35;;;;;;;14.73;9.70;;;2.50;99.90;;;;;;5054438;28;20044;-64
2023/01/19 04:17:00;;;;;;;16.10;10.63;;;2.50;99.90;;;;;;5061967;28;20403;-63
2023/01/19 04:19:26;;;;;;;16.13;10.00;;;2.50;99.90;;;;;;5064160;28;20450;-63
2023/01/19 04:21:51;;;;;;;17.88;10.98;;;2.50;99.90;;;;;;5072001;28;20032;-63
2023/01/19 04:24:17;;;;;;;16.55;10.73;;;2.40;99.90;;;;;;5059398;28;20044;-63
2023/01/19 04:26:43;;;;;;;15.02;9.48;;;2.40;99.90;;;;;;5062962;28;20044;-63
2023/01/19 04:29:09;;;;;;;17.85;11.63;;;2.40;99.90;;;;;;5066310;28;20032;-63
2023/01/19 04:31:35;;;;;;;17.77;11.10;;;2.40;99.90;;;;;;5074567;28;20032;-64
2023/01/19 04:34:01;;;;;;;17.17;10.65;;;2.30;99.90;;;;;;5065988;28;20052;-63
2023/01/19 04:36:27;;;;;;;18.70;11.48;;;2.30;99.90;;;;;;5064407;28;20099;-63
2023/01/19 04:38:53;;;;;;;20.73;12.15;;;2.30;99.90;;;;;;5071981;28;20642;-63
2023/01/19 04:41:19;;;;;;;21.75;12.75;;;2.20;99.90;;;;;;5061740;28;20128;-64
2023/01/19 04:43:46;;;;;;;24.33;14.15;;;2.20;99.90;;;;;;5063218;28;20523;-63
2023/01/19 04:46:15;;;;;;;26.13;15.07;;;2.20;99.90;;;;;;5074098;28;20085;-63
2023/01/19 04:48:41;;;;;;;27.20;15.45;;;2.20;99.90;;;;;;5062038;28;20240;-63
2023/01/19 04:51:07;;;;;;;31.13;18.27;;;2.30;99.90;;;;;;5068729;28;20479;-63
2023/01/19 04:53:33;;;;;;;30.17;15.15;;;2.30;99.90;;;;;;5069364;28;20043;-63
2023/01/19 04:55:59;;;;;;;30.17;17.65;;;2.30;99.90;;;;;;5063374;28;20517;-63
2023/01/19 04:58:25;;;;;;;30.08;17.52;;;2.40;99.90;;;;;;5066889;28;20045;-63
2023/01/19 05:00:51;;;;;;;27.65;15.05;;;2.40;99.90;;;;;;5062699;28;20094;-63
2023/01/19 05:03:18;;;;;;;27.60;14.68;;;2.50;99.90;;;;;;5073858;28;20064;-63
2023/01/19 05:05:44;;;;;;;27.58;15.35;;;2.50;99.90;;;;;;5074218;28;20044;-63
2023/01/19 05:08:09;;;;;;;31.38;16.05;;;2.50;99.90;;;;;;5061097;28;20047;-63
2023/01/19 05:10:35;;;;;;;28.48;14.93;;;2.50;99.90;;;;;;5060587;28;20407;-63
2023/01/19 05:13:01;;;;;;;24.60;13.82;;;2.50;99.90;;;;;;5069027;28;20467;-63
2023/01/19 05:15:26;;;;;;;26.45;13.60;;;2.50;99.90;;;;;;5056889;28;20167;-63
2023/01/19 05:17:52;;;;;;;22.80;12.40;;;2.50;99.90;;;;;;5062845;28;20495;-63
2023/01/19 05:20:18;;;;;;;25.90;13.57;;;2.60;99.90;;;;;;5073674;28;20575;-63
2023/01/19 05:22:51;;;;;;;23.48;12.52;;;2.60;99.90;;;;;;5060846;28;20032;-63
2023/01/19 05:25:17;;;;;;;22.67;12.30;;;2.70;99.90;;;;;;5068006;28;20036;-63
2023/01/19 05:27:43;;;;;;;23.50;13.15;;;2.70;99.90;;;;;;5069793;28;20483;-63
2023/01/19 05:30:10;;;;;;;25.63;12.18;;;2.70;99.90;;;;;;5067397;28;20480;-63
2023/01/19 05:32:35;;;;;;;24.92;13.10;;;2.70;99.90;;;;;;5071515;28;20486;-63
2023/01/19 05:35:01;;;;;;;21.70;11.00;;;2.70;99.90;;;;;;5064077;28;20047;-63
2023/01/19 05:37:26;;;;;;;21.98;9.13;;;2.80;99.90;;;;;;5073408;28;20036;-63
2023/01/19 05:39:52;;;;;;;21.67;9.00;;;2.90;99.90;;;;;;5060620;28;20043;-63
2023/01/19 05:42:18;;;;;;;14.90;7.22;;;3.00;99.90;;;;;;5068058;28;20048;-63
2023/01/19 05:44:44;;;;;;;17.77;7.05;;;3.20;99.90;;;;;;5060831;28;20047;-63
2023/01/19 05:47:09;;;;;;;15.18;5.75;;;3.20;99.90;;;;;;5051677;28;20041;-63
2023/01/19 05:49:35;;;;;;;16.52;5.30;;;3.30;99.90;;;;;;5070777;28;20413;-64
2023/01/19 05:52:01;;;;;;;11.98;3.00;;;3.40;99.90;;;;;;5064074;28;20134;-63
2023/01/19 05:54:26;;;;;;;10.07;2.25;;;3.50;99.90;;;;;;5072847;28;20453;-63
2023/01/19 05:56:52;;;;;;;8.40;2.05;;;3.70;99.90;;;;;;5062060;28;20037;-63
2023/01/19 05:59:22;;;;;;;6.05;1.77;;;3.70;99.90;;;;;;5064815;28;20036;-63
2023/01/19 06:01:51;;;;;;;5.85;1.77;;;3.80;99.90;;;;;;5070049;28;20117;-63
2023/01/19 06:04:18;;;;;;;9.23;1.67;;;3.80;99.90;;;;;;5064402;28;20029;-63
2023/01/19 06:06:46;;;;;;;4.97;1.77;;;3.80;99.90;;;;;;5063962;28;20032;-63
2023/01/19 06:09:11;;;;;;;4.30;1.38;;;3.80;99.90;;;;;;5061223;28;20071;-63
2023/01/19 06:11:37;;;;;;;5.53;1.10;;;3.80;99.90;;;;;;5061101;28;20060;-63
2023/01/19 06:14:02;;;;;;;3.53;1.30;;;3.90;99.90;;;;;;5061273;28;20059;-63
2023/01/19 06:16:28;;;;;;;6.28;1.00;;;3.90;99.90;;;;;;5061952;28;20052;-63
2023/01/19 06:18:54;;;;;;;3.78;1.27;;;3.90;99.90;;;;;;5067130;28;20048;-63
2023/01/19 06:21:20;;;;;;;6.30;1.23;;;4.00;99.90;;;;;;5057100;28;20107;-63
2023/01/19 06:23:46;;;;;;;4.70;1.40;;;4.00;99.90;;;;;;5062123;28;20546;-63
2023/01/19 06:26:12;;;;;;;4.40;1.20;;;4.00;99.90;;;;;;5047789;28;20116;-63
2023/01/19 06:28:38;;;;;;;4.15;1.23;;;3.90;99.90;;;;;;5054942;28;20044;-63
2023/01/19 06:31:03;;;;;;;3.50;1.20;;;3.90;99.90;;;;;;5058825;28;20445;-64
2023/01/19 06:33:29;;;;;;;5.57;1.58;;;3.80;99.90;;;;;;5067847;28;20044;-64
2023/01/19 06:35:55;;;;;;;7.43;1.67;;;3.80;99.90;;;;;;5056957;28;20040;-64
2023/01/19 06:38:21;;;;;;;7.90;1.60;;;3.70;99.90;;;;;;5053198;28;20040;-63
2023/01/19 06:41:02;;;;;;;4.97;1.58;;;3.70;99.90;;;;;;5056227;28;20426;-64
2023/01/19 06:43:31;;;;;;;7.15;1.50;;;3.60;99.90;;;;;;5070884;28;20105;-64
2023/01/19 06:45:59;;;;;;;5.15;1.58;;;3.60;99.90;;;;;;5068764;28;20113;-64
2023/01/19 06:48:25;;;;;;;7.15;1.50;;;3.60;99.90;;;;;;5060498;28;20044;-64
2023/01/19 06:50:50;;;;;;;5.63;1.30;;;3.50;99.90;;;;;;5059388;28;20040;-64
2023/01/19 06:53:18;;;;;;;6.07;1.48;;;3.50;99.90;;;;;;5059032;28;20045;-64
2023/01/19 06:55:44;;;;;;;6.20;1.90;;;3.50;99.90;;;;;;5057005;28;20095;-64
2023/01/19 06:58:10;;;;;;;3.08;1.30;;;3.50;99.90;;;;;;5055624;28;20072;-64
2023/01/19 07:00:37;;;;;;;4.88;1.50;;;3.50;99.90;;;;;;5067382;28;20123;-64
2023/01/19 07:03:06;;;;;;;6.78;1.75;;;3.40;99.90;;;;;;5056053;28;20502;-64
2023/01/19 07:05:34;;;;;;;8.80;1.83;;;3.30;99.90;;;;;;5054874;28;20561;-64
2023/01/19 07:07:59;;;;;;;12.18;1.70;;;3.30;99.90;;;;;;5060645;28;20072;-64
2023/01/19 07:10:25;;;;;;;4.68;2.00;;;3.20;99.90;;;;;;5061620;28;20427;-63
2023/01/19 07:12:50;;;;;;;8.02;1.67;;;3.40;99.90;;;;;;5065558;28;20036;-64
2023/01/19 07:15:21;;;;;;;8.65;1.63;;;3.40;99.90;;;;;;5057157;28;20029;-64
2023/01/19 07:17:47;;;;;;;9.77;2.00;;;3.50;99.90;;;;;;5049889;28;20128;-65
2023/01/19 07:20:13;;;;;;;5.53;1.45;;;3.60;99.90;;;;;;5063496;28;20032;-65
2023/01/19 07:22:44;;;;;;;12.05;1.90;;;3.70;99.90;;;;;;5062570;28;20037;-65
2023/01/19 07:25:10;;;;;;;9.27;1.67;;;3.70;99.90;;;;;;5067215;28;20033;-65
2023/01/19 07:27:35;;;;;;;11.65;1.75;;;3.70;99.90;;;;;;5056398;28;20041;-65
2023/01/19 07:30:01;;;;;;;7.85;1.80;;;3.70;99.90;;;;;;5064430;28;20040;-65
2023/01/19 07:32:27;;;;;;;7.75;1.65;;;3.70;99.90;;;;;;5065318;28;20112;-65
2023/01/19 07:34:53;;;;;;;8.63;1.95;;;3.70;99.90;;;;;;5071459;28;20386;-65
2023/01/19 07:37:19;;;;;;;13.48;1.95;;;3.70;99.90;;;;;;5059453;28;20582;-65
2023/01/19 07:39:45;;;;;;;8.02;1.90;;;3.70;99.90;;;;;;5060860;28;20041;-64
2023/01/19 07:42:11;;;;;;;12.95;1.90;;;3.70;99.90;;;;;;5065045;28;20108;-64
2023/01/19 07:44:37;;;;;;;8.35;1.73;;;3.70;99.90;;;;;;5053407;28;20119;-64
2023/01/19 07:47:02;;;;;;;14.45;3.38;;;3.70;99.90;;;;;;5061638;28;20123;-64
2023/01/19 07:49:28;;;;;;;8.13;1.70;;;3.70;99.90;;;;;;5055001;28;20041;-64
2023/01/19 07:51:55;;;;;;;12.27;2.15;;;3.70;99.90;;;;;;5062004;28;20090;-64
2023/01/19 07:54:21;;;;;;;14.88;2.00;;;3.70;99.90;;;;;;5067152;28;20076;-64
2023/01/19 07:56:46;;;;;;;15.73;2.05;;;3.70;99.90;;;;;;5069386;28;20064;-65
2023/01/19 07:59:12;;;;;;;11.30;1.90;;;3.60;99.90;;;;;;5063319;28;20047;-64
2023/01/19 08:01:38;;;;;;;12.55;2.28;;;3.60;99.90;;;;;;5064135;28;20033;-64
2023/01/19 08:04:03;;;;;;;13.93;2.17;;;3.50;99.90;;;;;;5061460;28;20056;-64
2023/01/19 08:06:32;;;;;;;12.07;1.80;;;3.50;99.90;;;;;;5071248;28;20070;-64
2023/01/19 08:08:58;;;;;;;12.75;2.15;;;3.50;99.90;;;;;;5071158;28;20048;-64
2023/01/19 08:11:24;;;;;;;19.55;3.58;;;3.60;99.90;;;;;;5058861;28;20041;-64
2023/01/19 08:13:50;;;;;;;11.50;2.45;;;3.60;99.90;;;;;;5060463;28;20041;-64
2023/01/19 08:16:15;;;;;;;13.18;2.65;;;3.70;99.90;;;;;;5068070;28;20047;-64
2023/01/19 08:18:41;;;;;;;9.38;1.83;;;3.70;99.90;;;;;;5062560;28;20041;-64
2023/01/19 08:21:07;;;;;;;8.93;1.92;;;3.70;99.90;;;;;;5061041;28;20036;-64
2023/01/19 08:23:32;;;;;;;11.43;2.53;;;3.70;99.90;;;;;;5072461;28;20037;-64
2023/01/19 08:25:58;;;;;;;8.55;1.95;;;3.80;99.90;;;;;;5074781;28;20035;-64
2023/01/19 08:28:24;;;;;;;11.27;2.17;;;3.90;99.90;;;;;;5058529;28;20551;-64
2023/01/19 08:30:53;;;;;;;11.35;2.58;;;3.90;99.90;;;;;;5070145;28;20449;-64
2023/01/19 08:33:22;;;;;;;13.02;2.40;;;3.90;99.90;;;;;;5052885;28;20041;-64
2023/01/19 08:35:51;;;;;;;12.43;2.42;;;4.00;99.90;;;;;;5060967;28;20040;-64
2023/01/19 08:38:17;;;;;;;7.95;2.05;;;4.10;99.90;;;;;;5056911;28;20041;-65
2023/01/19 08:40:42;;;;;;;12.27;1.98;;;4.20;99.90;;;;;;5062158;28;20106;-64
2023/01/19 08:43:14;;;;;;;13.55;2.10;;;4.20;99.90;;;;;;5060923;28;20025;-64
2023/01/19 08:45:44;;;;;;;;;;;4.20;99.90;;;;;;5059243;28;20039;-64
2023/01/19 08:48:09;;;;;;;10.77;2.17;;;4.20;99.90;;;;;;5062441;28;19917;-65
2023/01/19 08:50:35;;;;;;;9.18;1.55;;;4.20;99.90;;;;;;5059393;28;20041;-64
2023/01/19 08:53:02;;;;;;;9.25;2.38;;;4.30;99.90;;;;;;5069376;28;20437;-64
2023/01/19 08:55:29;;;;;;;11.25;1.85;;;4.20;99.90;;;;;;5068446;28;20490;-64
2023/01/19 08:57:56;;;;;;;9.38;2.38;;;4.20;99.90;;;;;;5055910;28;20583;-64
2023/01/19 09:00:24;;;;;;;10.93;1.92;;;4.30;99.90;;;;;;5059405;28;20037;-64
2023/01/19 09:02:50;;;;;;;9.10;2.25;;;4.30;99.90;;;;;;5066049;28;20040;-64
2023/01/19 09:05:16;;;;;;;12.95;2.70;;;4.30;99.90;;;;;;5064380;28;20060;-64
2023/01/19 09:07:47;;;;;;;9.80;1.67;;;4.40;99.90;;;;;;5061127;28;20051;-64
2023/01/19 09:10:13;;;;;;;11.10;2.17;;;4.40;99.90;;;;;;5061241;28;20037;-64
2023/01/19 09:12:39;;;;;;;6.78;1.67;;;4.40;99.90;;;;;;5069143;28;20044;-64
2023/01/19 09:15:06;;;;;;;12.32;2.40;;;4.40;99.90;;;;;;5073953;28;20046;-64
2023/01/19 09:17:32;;;;;;;9.30;1.98;;;4.40;99.90;;;;;;5067390;28;20041;-64
2023/01/19 09:19:57;;;;;;;11.15;2.50;;;4.40;99.90;;;;;;5064559;28;20089;-64
2023/01/19 09:22:23;;;;;;;13.05;2.50;;;4.40;99.90;;;;;;5073065;28;20041;-64
2023/01/19 09:24:49;;;;;;;10.73;2.28;;;4.30;99.90;;;;;;5063875;28;20113;-64
2023/01/19 09:27:14;;;;;;;11.55;2.30;;;4.30;99.90;;;;;;5058249;28;20368;-64
2023/01/19 09:29:40;;;;;;;12.73;2.15;;;4.30;99.90;;;;;;5062459;28;20032;-64
2023/01/19 09:32:06;;;;;;;15.07;2.15;;;4.30;99.90;;;;;;5071568;28;20037;-64
2023/01/19 09:34:31;;;;;;;11.82;1.80;;;4.30;99.90;;;;;;5069060;28;20037;-64
2023/01/19 09:36:57;;;;;;;9.38;1.70;;;4.30;99.90;;;;;;5067915;28;20045;-64
2023/01/19 09:39:22;;;;;;;13.48;2.47;;;4.30;99.90;;;;;;5064607;28;20040;-64
2023/01/19 09:41:57;;;;;;;13.77;2.47;;;4.20;99.90;;;;;;5060328;28;20079;-64
2023/01/19 09:44:30;;;;;;;9.45;2.50;;;4.20;99.90;;;;;;5064559;28;20036;-64
2023/01/19 09:46:56;;;;;;;12.73;2.50;;;4.30;99.90;;;;;;5068451;28;20483;-64
2023/01/19 09:49:29;;;;;;;12.50;2.60;;;4.30;99.90;;;;;;5055695;28;20090;-64
2023/01/19 09:51:55;;;;;;;16.25;3.53;;;4.40;99.90;;;;;;5065539;28;20043;-64
2023/01/19 09:54:39;;;;;;;9.88;1.88;;;4.40;99.90;;;;;;5062569;28;20037;-64
2023/01/19 09:57:10;;;;;;;11.55;2.63;;;4.40;99.90;;;;;;5060152;28;20126;-64
2023/01/19 09:59:37;;;;;;;14.33;2.50;;;4.50;99.90;;;;;;5058009;28;20039;-64
2023/01/19 10:02:18;;;;;;;19.73;3.75;;;4.50;99.90;;;;;;5060172;28;20079;-64
2023/01/19 10:04:56;;;;;;;14.45;2.20;;;4.50;99.90;;;;;;5051656;28;20826;-64
2023/01/19 10:07:51;;;;;;;11.43;1.90;;;4.50;99.90;;;;;;5049143;28;20041;-64
2023/01/19 10:10:23;;;;;;;13.32;2.42;;;4.50;99.90;;;;;;5060030;28;20040;-64
2023/01/19 10:13:18;;;;;;;9.93;2.00;;;4.70;99.90;;;;;;5062416;28;20072;-64
2023/01/19 10:16:13;;;;;;;10.30;1.80;;;4.80;99.90;;;;;;5058120;28;20033;-64
2023/01/19 10:18:50;;;;;;;10.15;2.28;;;4.80;99.90;;;;;;5060168;28;20037;-65
2023/01/19 10:21:26;;;;;;;9.52;2.20;;;5.00;99.90;;;;;;5056419;28;20037;-65
2023/01/19 10:23:58;;;;;;;9.15;2.10;;;5.10;99.90;;;;;;5060170;28;20098;-65
2023/01/19 10:26:51;;;;;;;7.05;1.80;;;5.10;99.90;;;;;;5061778;28;20037;-65
2023/01/19 10:29:22;;;;;;;10.35;1.70;;;5.20;99.90;;;;;;5061642;28;20036;-65
2023/01/19 10:31:51;;;;;;;14.63;2.13;;;5.30;99.90;;;;;;5051243;28;20048;-65
2023/01/19 10:34:21;;;;;;;17.60;2.55;;;5.30;99.90;;;;;;5064770;28;20082;-65
2023/01/19 10:36:49;;;;;;;8.45;1.88;;;5.30;99.90;;;;;;5064072;28;20055;-65
2023/01/19 10:39:17;;;;;;;14.32;2.00;;;5.40;99.90;;;;;;5063995;28;20067;-65
2023/01/19 10:41:50;;;;;;;11.80;2.28;;;5.40;99.90;;;;;;5058777;28;20033;-65
2023/01/19 10:44:24;;;;;;;13.57;2.17;;;5.50;99.90;;;;;;5057210;28;20037;-65
2023/01/19 10:46:51;;;;;;;10.68;2.42;;;5.50;99.90;;;;;;5056466;28;20032;-66
2023/01/19 10:49:28;;;;;;;11.57;2.70;;;5.60;99.90;;;;;;5066066;28;20055;-65
2023/01/19 10:51:55;;;;;;;13.80;2.00;;;5.60;99.90;;;;;;5058857;28;20120;-65
2023/01/19 10:54:22;;;;;;;12.20;1.95;;;5.60;99.90;;;;;;5053653;28;20036;-64
2023/01/19 10:56:55;;;;;;;12.68;2.22;;;5.70;99.90;;;;;;5049863;28;20041;-65
2023/01/19 10:59:36;;;;;;;10.52;1.92;;;5.70;99.90;;;;;;5061972;28;20032;-64
2023/01/19 11:02:03;;;;;;;13.93;2.40;;;5.80;99.90;;;;;;5062354;28;20057;-64
2023/01/19 11:04:29;;;;;;;8.77;2.05;;;5.80;99.90;;;;;;5061192;28;20495;-64
2023/01/19 11:07:15;;;;;;;11.48;2.20;;;5.90;99.90;;;;;;5065535;28;20051;-64
2023/01/19 11:09:40;;;;;;;8.70;1.95;;;5.90;99.90;;;;;;5067815;28;20051;-64
2023/01/19 11:12:19;;;;;;;12.32;2.53;;;5.90;99.90;;;;;;5061690;28;20493;-65
2023/01/19 11:14:45;;;;;;;9.68;1.92;;;6.00;99.90;;;;;;5061224;28;20088;-64
2023/01/19 11:17:24;;;;;;;10.80;2.10;;;6.00;99.90;;;;;;5064227;28;20538;-65
2023/01/19 11:19:58;;;;;;;10.23;1.92;;;6.10;99.90;;;;;;5057485;28;20048;-65
2023/01/19 11:22:31;;;;;;;8.90;1.77;;;6.10;99.90;;;;;;5060578;28;20044;-65
2023/01/19 11:25:02;;;;;;;9.10;1.85;;;6.10;99.90;;;;;;5057071;28;20052;-65
2023/01/19 11:27:30;;;;;;;9.32;2.13;;;6.10;99.90;;;;;;5060728;28;20032;-65
2023/01/19 11:30:08;;;;;;;9.25;1.83;;;6.20;99.90;;;;;;5059170;28;20033;-65
2023/01/19 11:32:35;;;;;;;13.70;2.85;;;6.20;99.90;;;;;;5059822;28;20039;-65
2023/01/19 11:35:28;;;;;;;11.18;2.25;;;6.20;99.90;;;;;;5059193;28;20037;-65
2023/01/19 11:38:16;;;;;;;10.25;2.97;;;6.20;99.90;;;;;;5057695;28;20060;-66
2023/01/19 11:40:53;;;;;;;8.02;1.52;;;6.20;99.90;;;;;;5063287;28;20039;-65
2023/01/19 11:43:21;;;;;;;6.63;1.23;;;6.30;99.90;;;;;;5053533;28;20520;-65
2023/01/19 11:45:47;;;;;;;9.85;1.65;;;6.30;99.90;;;;;;5059038;28;20506;-65
2023/01/19 11:48:29;;;;;;;8.35;1.65;;;6.30;99.90;;;;;;5069835;28;20044;-66
2023/01/19 11:50:58;;;;;;;9.90;1.80;;;6.30;99.90;;;;;;5049866;28;20275;-66
2023/01/19 11:53:32;;;;;;;9.82;1.95;;;6.30;99.90;;;;;;5062954;28;20079;-66
2023/01/19 11:56:11;;;;;;;8.30;1.55;;;6.30;99.90;;;;;;5061438;28;20042;-67
2023/01/19 11:58:39;;;;;;;6.45;1.60;;;6.40;99.90;;;;;;5061103;28;20041;-66
2023/01/19 12:01:26;;;;;;;10.82;1.85;;;6.40;99.90;;;;;;5061349;28;20032;-66
2023/01/19 12:04:09;;;;;;;8.13;1.67;;;6.40;99.90;;;;;;5064628;28;20113;-67
2023/01/19 12:06:37;;;;;;;5.50;1.40;;;6.40;99.90;;;;;;5068367;28;20062;-66
2023/01/19 12:09:09;;;;;;;6.03;1.10;;;6.40;99.90;;;;;;5063902;28;20052;-67
2023/01/19 12:11:41;;;;;;;6.82;1.50;;;6.40;99.90;;;;;;5060873;28;20079;-67
2023/01/19 12:14:21;;;;;;;5.82;1.30;;;6.50;99.90;;;;;;5061786;28;20058;-66
2023/01/19 12:16:51;;;;;;;7.07;1.60;;;6.40;99.90;;;;;;5054042;28;20045;-67
2023/01/19 12:19:23;;;;;;;9.57;1.40;;;6.50;99.90;;;;;;5062674;28;20079;-65
2023/01/19 12:21:51;;;;;;;6.68;1.50;;;6.50;99.90;;;;;;5071771;28;20068;-65
2023/01/19 12:24:19;;;;;;;10.68;1.60;;;6.50;99.90;;;;;;5062225;28;20051;-65
2023/01/19 12:26:54;;;;;;;6.55;1.60;;;6.60;99.90;;;;;;5062847;28;20024;-66
2023/01/19 12:29:22;;;;;;;10.57;2.03;;;6.70;99.90;;;;;;5063920;28;20086;-66
2023/01/19 12:32:13;;;;;;;6.72;1.73;;;6.80;99.90;;;;;;5059652;28;20117;-66
2023/01/19 12:34:42;;;;;;;8.70;1.40;;;7.00;99.90;;;;;;5063867;28;20040;-65
2023/01/19 12:37:36;;;;;;;13.98;1.63;;;7.10;99.90;;;;;;5058799;28;20120;-66
2023/01/19 12:40:18;;;;;;;13.02;2.50;;;7.40;99.90;;;;;;5059508;28;20116;-65
2023/01/19 12:42:46;;;;;;;3.97;1.13;;;7.50;99.90;;;;;;5054104;28;20037;-65
2023/01/19 12:45:21;;;;;;;8.00;1.40;;;7.50;99.90;;;;;;5083677;22;20467;-74
2023/01/19 12:47:54;;;;;;;5.68;1.33;;;7.50;99.90;;;;;;5054631;28;20037;-74
2023/01/19 12:50:24;;;;;;;6.25;1.33;;;7.40;99.90;;;;;;5053038;28;20414;-74
2023/01/19 12:52:56;;;;;;;9.63;1.70;;;7.40;99.90;;;;;;5052913;28;20106;-74
2023/01/19 12:55:24;;;;;;;10.73;1.70;;;7.20;99.90;;;;;;5051958;28;20064;-73
2023/01/19 12:57:55;;;;;;;8.57;1.55;;;7.00;99.90;;;;;;5052757;28;20049;-73
2023/01/19 13:00:21;;;;;;;10.50;1.30;;;7.00;99.90;;;;;;5053090;28;20043;-74
2023/01/19 13:03:18;;;;;;;9.48;1.67;;;6.90;99.90;;;;;;5057845;28;20040;-73
2023/01/19 13:05:51;;;;;;;8.30;1.50;;;7.00;99.90;;;;;;5052162;28;20029;-73
2023/01/19 13:08:19;;;;;;;8.57;1.52;;;7.10;99.90;;;;;;5052611;28;20419;-73